sensor_id;sensor_type;location;lat;lon;timestamp;P1;durP1;ratioP1;P2;durP2;ratioP2
1475;SDS011;730;48.870;12.542;2022-11-20T00:01:14;16.98;;;13.23;;
1475;SDS011;730;48.870;12.542;2022-11-20T00:03:42;20.20;;;14.90;;
1475;SDS011;730;48.870;12.542;2022-11-20T00:06:10;19.45;;;15.50;;
1475;SDS011;730;48.870;12.542;2022-11-20T00:08:37;19.98;;;13.65;;
1475;SDS011;730;48.870;12.542;2022-11-20T00:11:04;21.42;;;15.02;;
1475;SDS011;730;48.870;12.542;2022-11-20T00:13:32;22.58;;;15.70;;
1475;SDS011;730;48.870;12.542;2022-11-20T00:16:01;18.95;;;13.77;;
1475;SDS011;730;48.870;12.542;2022-11-20T00:18:29;18.45;;;13.95;;
1475;SDS011;730;48.870;12.542;2022-11-20T00:21:02;25.70;;;16.33;;
1475;SDS011;730;48.870;12.542;2022-11-20T00:23:29;21.88;;;15.93;;
1475;SDS011;730;48.870;12.542;2022-11-20T00:25:55;22.98;;;15.35;;
1475;SDS011;730;48.870;12.542;2022-11-20T00:28:21;22.95;;;15.52;;
1475;SDS011;730;48.870;12.542;2022-11-20T00:30:47;22.70;;;15.30;;
1475;SDS011;730;48.870;12.542;2022-11-20T00:33:13;24.33;;;17.55;;
1475;SDS011;730;48.870;12.542;2022-11-20T00:35:39;22.92;;;15.50;;
1475;SDS011;730;48.870;12.542;2022-11-20T00:38:06;23.63;;;14.27;;
1475;SDS011;730;48.870;12.542;2022-11-20T00:40:32;24.85;;;16.73;;
1475;SDS011;730;48.870;12.542;2022-11-20T00:42:58;19.08;;;14.20;;
1475;SDS011;730;48.870;12.542;2022-11-20T00:45:24;19.77;;;14.35;;
1475;SDS011;730;48.870;12.542;2022-11-20T00:47:50;22.73;;;15.55;;
1475;SDS011;730;48.870;12.542;2022-11-20T00:50:16;25.45;;;17.08;;
1475;SDS011;730;48.870;12.542;2022-11-20T00:52:42;19.50;;;14.85;;
1475;SDS011;730;48.870;12.542;2022-11-20T00:55:08;26.67;;;16.67;;
1475;SDS011;730;48.870;12.542;2022-11-20T00:57:34;23.27;;;16.35;;
1475;SDS011;730;48.870;12.542;2022-11-20T01:00:00;22.20;;;15.32;;
1475;SDS011;730;48.870;12.542;2022-11-20T01:02:26;27.25;;;15.95;;
1475;SDS011;730;48.870;12.542;2022-11-20T01:04:52;22.67;;;15.98;;
1475;SDS011;730;48.870;12.542;2022-11-20T01:07:19;24.85;;;17.38;;
1475;SDS011;730;48.870;12.542;2022-11-20T01:09:45;22.45;;;15.90;;
1475;SDS011;730;48.870;12.542;2022-11-20T01:12:11;22.75;;;16.35;;
1475;SDS011;730;48.870;12.542;2022-11-20T01:14:37;23.85;;;15.20;;
1475;SDS011;730;48.870;12.542;2022-11-20T01:17:03;21.65;;;16.42;;
1475;SDS011;730;48.870;12.542;2022-11-20T01:19:30;22.55;;;14.73;;
1475;SDS011;730;48.870;12.542;2022-11-20T01:21:57;20.60;;;13.43;;
1475;SDS011;730;48.870;12.542;2022-11-20T01:24:24;24.40;;;16.17;;
1475;SDS011;730;48.870;12.542;2022-11-20T01:26:51;20.15;;;13.60;;
1475;SDS011;730;48.870;12.542;2022-11-20T01:29:21;26.05;;;15.50;;
1475;SDS011;730;48.870;12.542;2022-11-20T01:31:48;25.23;;;16.42;;
1475;SDS011;730;48.870;12.542;2022-11-20T01:34:16;21.95;;;15.15;;
1475;SDS011;730;48.870;12.542;2022-11-20T01:36:44;21.40;;;14.77;;
1475;SDS011;730;48.870;12.542;2022-11-20T01:39:13;21.20;;;15.43;;
1475;SDS011;730;48.870;12.542;2022-11-20T01:41:41;19.00;;;14.85;;
1475;SDS011;730;48.870;12.542;2022-11-20T01:47:22;19.85;;;14.63;;
1475;SDS011;730;48.870;12.542;2022-11-20T01:49:55;21.65;;;15.32;;
1475;SDS011;730;48.870;12.542;2022-11-20T01:52:27;24.98;;;15.30;;
1475;SDS011;730;48.870;12.542;2022-11-20T01:55:02;19.48;;;15.20;;
1475;SDS011;730;48.870;12.542;2022-11-20T01:57:33;18.90;;;14.48;;
1475;SDS011;730;48.870;12.542;2022-11-20T02:00:05;23.17;;;16.08;;
1475;SDS011;730;48.870;12.542;2022-11-20T02:02:37;21.27;;;15.18;;
1475;SDS011;730;48.870;12.542;2022-11-20T02:07:59;20.45;;;14.30;;
1475;SDS011;730;48.870;12.542;2022-11-20T02:10:26;20.38;;;14.52;;
1475;SDS011;730;48.870;12.542;2022-11-20T02:12:53;21.00;;;14.38;;
1475;SDS011;730;48.870;12.542;2022-11-20T02:15:38;15.57;;;12.38;;
1475;SDS011;730;48.870;12.542;2022-11-20T02:18:05;22.67;;;15.85;;
1475;SDS011;730;48.870;12.542;2022-11-20T02:20:31;18.45;;;13.60;;
1475;SDS011;730;48.870;12.542;2022-11-20T02:23:03;20.05;;;14.13;;
1475;SDS011;730;48.870;12.542;2022-11-20T02:25:51;18.27;;;13.20;;
1475;SDS011;730;48.870;12.542;2022-11-20T02:28:21;16.17;;;13.20;;
1475;SDS011;730;48.870;12.542;2022-11-20T02:30:48;21.45;;;14.85;;
1475;SDS011;730;48.870;12.542;2022-11-20T02:33:14;19.25;;;15.57;;
1475;SDS011;730;48.870;12.542;2022-11-20T02:35:45;19.52;;;13.25;;
1475;SDS011;730;48.870;12.542;2022-11-20T02:38:12;22.67;;;16.90;;
1475;SDS011;730;48.870;12.542;2022-11-20T02:40:39;21.33;;;16.58;;
1475;SDS011;730;48.870;12.542;2022-11-20T02:43:05;21.75;;;16.25;;
1475;SDS011;730;48.870;12.542;2022-11-20T02:45:32;24.13;;;16.52;;
1475;SDS011;730;48.870;12.542;2022-11-20T02:47:58;21.95;;;16.08;;
1475;SDS011;730;48.870;12.542;2022-11-20T02:50:24;22.10;;;14.25;;
1475;SDS011;730;48.870;12.542;2022-11-20T02:52:54;22.38;;;15.65;;
1475;SDS011;730;48.870;12.542;2022-11-20T02:55:20;24.38;;;15.80;;
1475;SDS011;730;48.870;12.542;2022-11-20T02:57:46;21.98;;;17.23;;
1475;SDS011;730;48.870;12.542;2022-11-20T03:00:12;21.60;;;16.23;;
1475;SDS011;730;48.870;12.542;2022-11-20T03:02:39;21.65;;;14.05;;
1475;SDS011;730;48.870;12.542;2022-11-20T03:05:05;19.88;;;15.68;;
1475;SDS011;730;48.870;12.542;2022-11-20T03:07:31;20.17;;;13.93;;
1475;SDS011;730;48.870;12.542;2022-11-20T03:09:57;20.45;;;14.82;;
1475;SDS011;730;48.870;12.542;2022-11-20T03:12:23;21.80;;;15.93;;
1475;SDS011;730;48.870;12.542;2022-11-20T03:14:49;25.40;;;16.88;;
1475;SDS011;730;48.870;12.542;2022-11-20T03:17:15;19.08;;;13.88;;
1475;SDS011;730;48.870;12.542;2022-11-20T03:19:42;23.13;;;18.40;;
1475;SDS011;730;48.870;12.542;2022-11-20T03:22:08;22.98;;;16.90;;
1475;SDS011;730;48.870;12.542;2022-11-20T03:24:34;24.13;;;16.88;;
1475;SDS011;730;48.870;12.542;2022-11-20T03:27:00;20.55;;;15.15;;
1475;SDS011;730;48.870;12.542;2022-11-20T03:29:26;24.20;;;16.65;;
1475;SDS011;730;48.870;12.542;2022-11-20T03:31:52;21.85;;;16.45;;
1475;SDS011;730;48.870;12.542;2022-11-20T03:34:18;21.83;;;16.80;;
1475;SDS011;730;48.870;12.542;2022-11-20T03:36:44;23.38;;;17.60;;
1475;SDS011;730;48.870;12.542;2022-11-20T03:39:10;23.98;;;17.20;;
1475;SDS011;730;48.870;12.542;2022-11-20T03:41:38;23.88;;;17.67;;
1475;SDS011;730;48.870;12.542;2022-11-20T03:44:06;24.55;;;17.00;;
1475;SDS011;730;48.870;12.542;2022-11-20T03:46:33;26.30;;;16.35;;
1475;SDS011;730;48.870;12.542;2022-11-20T03:48:59;24.08;;;18.15;;
1475;SDS011;730;48.870;12.542;2022-11-20T03:51:26;24.02;;;16.83;;
1475;SDS011;730;48.870;12.542;2022-11-20T03:53:55;22.73;;;17.15;;
1475;SDS011;730;48.870;12.542;2022-11-20T03:56:23;23.05;;;15.82;;
1475;SDS011;730;48.870;12.542;2022-11-20T03:58:51;25.35;;;17.52;;
1475;SDS011;730;48.870;12.542;2022-11-20T04:01:20;22.88;;;16.08;;
1475;SDS011;730;48.870;12.542;2022-11-20T04:03:49;23.98;;;15.80;;
1475;SDS011;730;48.870;12.542;2022-11-20T04:06:19;22.63;;;15.77;;
1475;SDS011;730;48.870;12.542;2022-11-20T04:08:49;24.38;;;16.08;;
1475;SDS011;730;48.870;12.542;2022-11-20T04:11:16;21.75;;;16.13;;
1475;SDS011;730;48.870;12.542;2022-11-20T04:13:47;21.88;;;16.27;;
1475;SDS011;730;48.870;12.542;2022-11-20T04:16:15;23.15;;;15.68;;
1475;SDS011;730;48.870;12.542;2022-11-20T04:18:42;20.33;;;14.80;;
1475;SDS011;730;48.870;12.542;2022-11-20T04:21:09;21.67;;;15.55;;
1475;SDS011;730;48.870;12.542;2022-11-20T04:23:35;18.80;;;14.55;;
1475;SDS011;730;48.870;12.542;2022-11-20T04:26:08;20.92;;;15.65;;
1475;SDS011;730;48.870;12.542;2022-11-20T04:28:36;20.92;;;14.75;;
1475;SDS011;730;48.870;12.542;2022-11-20T04:31:05;18.42;;;14.75;;
1475;SDS011;730;48.870;12.542;2022-11-20T04:33:32;20.70;;;14.45;;
1475;SDS011;730;48.870;12.542;2022-11-20T04:36:05;17.90;;;14.68;;
1475;SDS011;730;48.870;12.542;2022-11-20T04:38:35;20.65;;;15.00;;
1475;SDS011;730;48.870;12.542;2022-11-20T04:41:02;21.02;;;16.33;;
1475;SDS011;730;48.870;12.542;2022-11-20T04:43:30;20.10;;;15.50;;
1475;SDS011;730;48.870;12.542;2022-11-20T04:45:57;22.48;;;15.07;;
1475;SDS011;730;48.870;12.542;2022-11-20T04:48:24;22.65;;;15.75;;
1475;SDS011;730;48.870;12.542;2022-11-20T04:50:51;21.00;;;14.90;;
1475;SDS011;730;48.870;12.542;2022-11-20T04:53:18;21.13;;;16.27;;
1475;SDS011;730;48.870;12.542;2022-11-20T04:55:45;20.05;;;15.50;;
1475;SDS011;730;48.870;12.542;2022-11-20T04:58:12;24.05;;;15.98;;
1475;SDS011;730;48.870;12.542;2022-11-20T05:00:38;21.10;;;14.57;;
1475;SDS011;730;48.870;12.542;2022-11-20T05:03:04;22.23;;;16.08;;
1475;SDS011;730;48.870;12.542;2022-11-20T05:05:34;23.35;;;16.58;;
1475;SDS011;730;48.870;12.542;2022-11-20T05:08:00;20.95;;;15.57;;
1475;SDS011;730;48.870;12.542;2022-11-20T05:10:27;17.92;;;14.07;;
1475;SDS011;730;48.870;12.542;2022-11-20T05:12:53;22.42;;;15.18;;
1475;SDS011;730;48.870;12.542;2022-11-20T05:15:19;20.45;;;15.43;;
1475;SDS011;730;48.870;12.542;2022-11-20T05:17:46;19.35;;;14.02;;
1475;SDS011;730;48.870;12.542;2022-11-20T05:20:13;20.35;;;14.80;;
1475;SDS011;730;48.870;12.542;2022-11-20T05:22:43;22.42;;;14.52;;
1475;SDS011;730;48.870;12.542;2022-11-20T05:25:09;19.60;;;14.07;;
1475;SDS011;730;48.870;12.542;2022-11-20T05:27:36;20.17;;;14.77;;
1475;SDS011;730;48.870;12.542;2022-11-20T05:30:03;19.17;;;14.85;;
1475;SDS011;730;48.870;12.542;2022-11-20T05:32:30;18.52;;;13.52;;
1475;SDS011;730;48.870;12.542;2022-11-20T05:34:57;19.80;;;15.13;;
1475;SDS011;730;48.870;12.542;2022-11-20T05:37:23;19.25;;;13.90;;
1475;SDS011;730;48.870;12.542;2022-11-20T05:39:49;22.35;;;15.52;;
1475;SDS011;730;48.870;12.542;2022-11-20T05:42:15;18.92;;;14.00;;
1475;SDS011;730;48.870;12.542;2022-11-20T05:44:57;19.00;;;14.52;;
1475;SDS011;730;48.870;12.542;2022-11-20T05:47:30;22.27;;;14.50;;
1475;SDS011;730;48.870;12.542;2022-11-20T05:49:58;21.20;;;15.57;;
1475;SDS011;730;48.870;12.542;2022-11-20T05:52:24;18.10;;;13.48;;
1475;SDS011;730;48.870;12.542;2022-11-20T05:54:53;17.35;;;14.30;;
1475;SDS011;730;48.870;12.542;2022-11-20T05:57:19;18.35;;;14.68;;
1475;SDS011;730;48.870;12.542;2022-11-20T05:59:45;20.42;;;14.00;;
1475;SDS011;730;48.870;12.542;2022-11-20T06:02:11;18.20;;;14.75;;
1475;SDS011;730;48.870;12.542;2022-11-20T06:04:37;18.58;;;13.30;;
1475;SDS011;730;48.870;12.542;2022-11-20T06:07:07;18.10;;;14.35;;
1475;SDS011;730;48.870;12.542;2022-11-20T06:09:33;18.35;;;13.52;;
1475;SDS011;730;48.870;12.542;2022-11-20T06:11:59;15.07;;;12.18;;
1475;SDS011;730;48.870;12.542;2022-11-20T06:14:25;18.90;;;13.85;;
1475;SDS011;730;48.870;12.542;2022-11-20T06:16:51;21.20;;;15.40;;
1475;SDS011;730;48.870;12.542;2022-11-20T06:19:17;19.95;;;15.50;;
1475;SDS011;730;48.870;12.542;2022-11-20T06:21:43;19.67;;;13.93;;
1475;SDS011;730;48.870;12.542;2022-11-20T06:24:10;19.30;;;14.52;;
1475;SDS011;730;48.870;12.542;2022-11-20T06:26:36;18.30;;;14.90;;
1475;SDS011;730;48.870;12.542;2022-11-20T06:29:02;17.75;;;13.63;;
1475;SDS011;730;48.870;12.542;2022-11-20T06:31:29;16.73;;;12.93;;
1475;SDS011;730;48.870;12.542;2022-11-20T06:33:55;17.55;;;13.65;;
1475;SDS011;730;48.870;12.542;2022-11-20T06:36:21;19.45;;;13.93;;
1475;SDS011;730;48.870;12.542;2022-11-20T06:38:48;17.98;;;13.07;;
1475;SDS011;730;48.870;12.542;2022-11-20T06:41:15;18.33;;;14.15;;
1475;SDS011;730;48.870;12.542;2022-11-20T06:43:43;22.08;;;15.18;;
1475;SDS011;730;48.870;12.542;2022-11-20T06:46:10;21.35;;;14.52;;
1475;SDS011;730;48.870;12.542;2022-11-20T06:48:43;22.92;;;14.63;;
1475;SDS011;730;48.870;12.542;2022-11-20T06:51:09;21.55;;;13.65;;
1475;SDS011;730;48.870;12.542;2022-11-20T06:53:36;21.00;;;14.63;;
1475;SDS011;730;48.870;12.542;2022-11-20T06:56:02;18.43;;;13.17;;
1475;SDS011;730;48.870;12.542;2022-11-20T06:58:29;17.58;;;12.75;;
1475;SDS011;730;48.870;12.542;2022-11-20T07:01:06;21.83;;;14.70;;
1475;SDS011;730;48.870;12.542;2022-11-20T07:03:35;24.42;;;16.75;;
1475;SDS011;730;48.870;12.542;2022-11-20T07:06:01;20.35;;;14.75;;
1475;SDS011;730;48.870;12.542;2022-11-20T07:08:28;18.30;;;14.33;;
1475;SDS011;730;48.870;12.542;2022-11-20T07:11:01;17.75;;;14.02;;
1475;SDS011;730;48.870;12.542;2022-11-20T07:13:29;15.88;;;12.50;;
1475;SDS011;730;48.870;12.542;2022-11-20T07:16:04;17.13;;;13.68;;
1475;SDS011;730;48.870;12.542;2022-11-20T07:18:32;21.00;;;13.10;;
1475;SDS011;730;48.870;12.542;2022-11-20T07:21:05;19.23;;;13.70;;
1475;SDS011;730;48.870;12.542;2022-11-20T07:23:33;22.17;;;15.20;;
1475;SDS011;730;48.870;12.542;2022-11-20T07:26:03;22.75;;;14.82;;
1475;SDS011;730;48.870;12.542;2022-11-20T07:28:30;21.02;;;14.40;;
1475;SDS011;730;48.870;12.542;2022-11-20T07:30:56;19.00;;;14.82;;
1475;SDS011;730;48.870;12.542;2022-11-20T07:33:22;17.40;;;13.07;;
1475;SDS011;730;48.870;12.542;2022-11-20T07:35:48;20.38;;;13.52;;
1475;SDS011;730;48.870;12.542;2022-11-20T07:38:14;16.70;;;12.93;;
1475;SDS011;730;48.870;12.542;2022-11-20T07:40:40;18.90;;;13.73;;
1475;SDS011;730;48.870;12.542;2022-11-20T07:43:07;16.30;;;11.90;;
1475;SDS011;730;48.870;12.542;2022-11-20T07:45:33;15.48;;;12.45;;
1475;SDS011;730;48.870;12.542;2022-11-20T07:47:59;16.63;;;13.73;;
1475;SDS011;730;48.870;12.542;2022-11-20T07:50:25;17.85;;;13.07;;
1475;SDS011;730;48.870;12.542;2022-11-20T07:52:51;18.88;;;13.45;;
1475;SDS011;730;48.870;12.542;2022-11-20T07:55:17;19.15;;;13.60;;
1475;SDS011;730;48.870;12.542;2022-11-20T07:57:44;16.88;;;12.75;;
1475;SDS011;730;48.870;12.542;2022-11-20T08:00:10;19.80;;;13.55;;
1475;SDS011;730;48.870;12.542;2022-11-20T08:02:37;17.80;;;12.95;;
1475;SDS011;730;48.870;12.542;2022-11-20T08:05:07;18.00;;;13.40;;
1475;SDS011;730;48.870;12.542;2022-11-20T08:07:35;23.30;;;14.98;;
1475;SDS011;730;48.870;12.542;2022-11-20T08:10:05;23.88;;;19.02;;
1475;SDS011;730;48.870;12.542;2022-11-20T08:12:32;21.40;;;17.42;;
1475;SDS011;730;48.870;12.542;2022-11-20T08:15:16;19.70;;;14.40;;
1475;SDS011;730;48.870;12.542;2022-11-20T08:17:42;16.75;;;13.60;;
1475;SDS011;730;48.870;12.542;2022-11-20T08:20:09;21.65;;;15.10;;
1475;SDS011;730;48.870;12.542;2022-11-20T08:22:35;24.55;;;17.98;;
1475;SDS011;730;48.870;12.542;2022-11-20T08:25:01;21.35;;;17.42;;
1475;SDS011;730;48.870;12.542;2022-11-20T08:27:27;21.75;;;16.15;;
1475;SDS011;730;48.870;12.542;2022-11-20T08:29:53;17.05;;;13.73;;
1475;SDS011;730;48.870;12.542;2022-11-20T08:32:19;17.02;;;12.65;;
1475;SDS011;730;48.870;12.542;2022-11-20T08:34:45;19.48;;;14.77;;
1475;SDS011;730;48.870;12.542;2022-11-20T08:37:11;17.00;;;13.07;;
1475;SDS011;730;48.870;12.542;2022-11-20T08:39:38;16.27;;;12.30;;
1475;SDS011;730;48.870;12.542;2022-11-20T08:42:07;16.50;;;12.88;;
1475;SDS011;730;48.870;12.542;2022-11-20T08:44:33;15.07;;;13.45;;
1475;SDS011;730;48.870;12.542;2022-11-20T08:47:00;14.15;;;11.48;;
1475;SDS011;730;48.870;12.542;2022-11-20T08:49:26;17.85;;;11.82;;
1475;SDS011;730;48.870;12.542;2022-11-20T08:51:52;15.82;;;12.93;;
1475;SDS011;730;48.870;12.542;2022-11-20T08:54:21;14.10;;;12.30;;
1475;SDS011;730;48.870;12.542;2022-11-20T08:56:48;15.15;;;13.48;;
1475;SDS011;730;48.870;12.542;2022-11-20T08:59:14;14.10;;;12.60;;
1475;SDS011;730;48.870;12.542;2022-11-20T09:01:40;15.57;;;13.15;;
1475;SDS011;730;48.870;12.542;2022-11-20T09:04:06;14.98;;;11.68;;
1475;SDS011;730;48.870;12.542;2022-11-20T09:06:32;14.60;;;11.35;;
1475;SDS011;730;48.870;12.542;2022-11-20T09:08:58;15.38;;;12.63;;
1475;SDS011;730;48.870;12.542;2022-11-20T09:11:24;15.70;;;12.85;;
1475;SDS011;730;48.870;12.542;2022-11-20T09:13:50;14.02;;;11.63;;
1475;SDS011;730;48.870;12.542;2022-11-20T09:16:16;14.18;;;12.68;;
1475;SDS011;730;48.870;12.542;2022-11-20T09:18:42;15.10;;;13.00;;
1475;SDS011;730;48.870;12.542;2022-11-20T09:21:10;16.67;;;12.88;;
1475;SDS011;730;48.870;12.542;2022-11-20T09:23:37;15.80;;;12.02;;
1475;SDS011;730;48.870;12.542;2022-11-20T09:26:05;15.55;;;11.73;;
1475;SDS011;730;48.870;12.542;2022-11-20T09:28:36;16.02;;;13.18;;
1475;SDS011;730;48.870;12.542;2022-11-20T09:31:06;14.10;;;12.07;;
1475;SDS011;730;48.870;12.542;2022-11-20T09:33:45;14.90;;;11.65;;
1475;SDS011;730;48.870;12.542;2022-11-20T09:36:11;14.55;;;13.05;;
1475;SDS011;730;48.870;12.542;2022-11-20T09:38:37;12.88;;;11.48;;
1475;SDS011;730;48.870;12.542;2022-11-20T09:41:04;15.00;;;12.82;;
1475;SDS011;730;48.870;12.542;2022-11-20T09:44:18;14.93;;;12.43;;
1475;SDS011;730;48.870;12.542;2022-11-20T09:54:18;18.95;;;12.40;;
1475;SDS011;730;48.870;12.542;2022-11-20T09:56:48;16.13;;;13.90;;
1475;SDS011;730;48.870;12.542;2022-11-20T09:59:40;14.82;;;13.30;;
1475;SDS011;730;48.870;12.542;2022-11-20T10:02:37;19.92;;;15.82;;
1475;SDS011;730;48.870;12.542;2022-11-20T10:08:11;14.95;;;12.82;;
1475;SDS011;730;48.870;12.542;2022-11-20T10:10:49;14.43;;;12.68;;
1475;SDS011;730;48.870;12.542;2022-11-20T10:16:27;17.35;;;14.07;;
1475;SDS011;730;48.870;12.542;2022-11-20T10:21:51;16.58;;;14.00;;
1475;SDS011;730;48.870;12.542;2022-11-20T10:24:34;18.05;;;14.35;;
1475;SDS011;730;48.870;12.542;2022-11-20T10:30:18;19.75;;;14.18;;
1475;SDS011;730;48.870;12.542;2022-11-20T10:32:48;21.52;;;14.35;;
1475;SDS011;730;48.870;12.542;2022-11-20T10:35:32;19.17;;;16.13;;
1475;SDS011;730;48.870;12.542;2022-11-20T10:38:05;18.83;;;14.75;;
1475;SDS011;730;48.870;12.542;2022-11-20T10:40:55;24.10;;;15.65;;
1475;SDS011;730;48.870;12.542;2022-11-20T10:43:44;23.52;;;17.13;;
1475;SDS011;730;48.870;12.542;2022-11-20T10:46:14;21.52;;;16.00;;
1475;SDS011;730;48.870;12.542;2022-11-20T10:48:43;16.00;;;12.50;;
1475;SDS011;730;48.870;12.542;2022-11-20T10:51:13;20.85;;;15.23;;
1475;SDS011;730;48.870;12.542;2022-11-20T10:54:20;20.80;;;16.10;;
1475;SDS011;730;48.870;12.542;2022-11-20T10:56:56;17.88;;;14.93;;
1475;SDS011;730;48.870;12.542;2022-11-20T11:02:39;18.50;;;13.75;;
1475;SDS011;730;48.870;12.542;2022-11-20T11:05:17;15.45;;;13.85;;
1475;SDS011;730;48.870;12.542;2022-11-20T11:07:53;17.95;;;14.52;;
1475;SDS011;730;48.870;12.542;2022-11-20T11:10:39;17.25;;;13.00;;
1475;SDS011;730;48.870;12.542;2022-11-20T11:13:23;14.75;;;13.32;;
1475;SDS011;730;48.870;12.542;2022-11-20T11:15:53;16.95;;;13.73;;
1475;SDS011;730;48.870;12.542;2022-11-20T11:18:25;16.83;;;12.85;;
1475;SDS011;730;48.870;12.542;2022-11-20T11:20:53;17.05;;;15.35;;
1475;SDS011;730;48.870;12.542;2022-11-20T11:23:28;15.00;;;13.40;;
1475;SDS011;730;48.870;12.542;2022-11-20T11:26:17;15.85;;;14.15;;
1475;SDS011;730;48.870;12.542;2022-11-20T11:28:55;13.18;;;11.77;;
1475;SDS011;730;48.870;12.542;2022-11-20T11:31:27;14.45;;;12.88;;
1475;SDS011;730;48.870;12.542;2022-11-20T11:34:07;13.98;;;12.20;;
1475;SDS011;730;48.870;12.542;2022-11-20T11:36:37;12.98;;;11.63;;
1475;SDS011;730;48.870;12.542;2022-11-20T11:39:04;14.57;;;12.20;;
1475;SDS011;730;48.870;12.542;2022-11-20T11:41:36;14.40;;;12.75;;
1475;SDS011;730;48.870;12.542;2022-11-20T11:44:15;15.60;;;14.07;;
1475;SDS011;730;48.870;12.542;2022-11-20T11:47:05;15.63;;;12.38;;
1475;SDS011;730;48.870;12.542;2022-11-20T11:49:45;14.88;;;13.27;;
1475;SDS011;730;48.870;12.542;2022-11-20T11:52:17;17.95;;;13.18;;
1475;SDS011;730;48.870;12.542;2022-11-20T11:59:57;32.17;;;24.95;;
1475;SDS011;730;48.870;12.542;2022-11-20T12:07:43;18.42;;;16.45;;
1475;SDS011;730;48.870;12.542;2022-11-20T12:10:41;18.45;;;15.02;;
1475;SDS011;730;48.870;12.542;2022-11-20T12:13:20;15.57;;;13.57;;
1475;SDS011;730;48.870;12.542;2022-11-20T12:15:56;13.23;;;11.82;;
1475;SDS011;730;48.870;12.542;2022-11-20T12:18:22;10.88;;;9.77;;
1475;SDS011;730;48.870;12.542;2022-11-20T12:21:00;3.75;;;3.00;;
1475;SDS011;730;48.870;12.542;2022-11-20T12:26:34;3.70;;;2.53;;
1475;SDS011;730;48.870;12.542;2022-11-20T12:40:17;3.05;;;2.30;;
1475;SDS011;730;48.870;12.542;2022-11-20T12:43:11;2.40;;;2.20;;
1475;SDS011;730;48.870;12.542;2022-11-20T12:54:34;3.03;;;2.10;;
1475;SDS011;730;48.870;12.542;2022-11-20T12:59:54;2.88;;;1.80;;
1475;SDS011;730;48.870;12.542;2022-11-20T13:02:37;2.80;;;2.40;;
1475;SDS011;730;48.870;12.542;2022-11-20T13:07:53;2.15;;;1.90;;
1475;SDS011;730;48.870;12.542;2022-11-20T13:13:19;2.35;;;2.03;;
1475;SDS011;730;48.870;12.542;2022-11-20T13:15:56;2.47;;;2.28;;
1475;SDS011;730;48.870;12.542;2022-11-20T13:18:27;2.23;;;2.03;;
1475;SDS011;730;48.870;12.542;2022-11-20T13:20:56;6.38;;;3.03;;
1475;SDS011;730;48.870;12.542;2022-11-20T13:23:23;4.60;;;1.60;;
1475;SDS011;730;48.870;12.542;2022-11-20T13:25:51;3.80;;;2.15;;
1475;SDS011;730;48.870;12.542;2022-11-20T13:28:30;3.00;;;1.65;;
1475;SDS011;730;48.870;12.542;2022-11-20T13:30:57;2.55;;;2.20;;
1475;SDS011;730;48.870;12.542;2022-11-20T13:33:34;2.67;;;1.83;;
1475;SDS011;730;48.870;12.542;2022-11-20T13:38:49;2.05;;;1.60;;
1475;SDS011;730;48.870;12.542;2022-11-20T13:41:30;1.90;;;1.40;;
1475;SDS011;730;48.870;12.542;2022-11-20T13:46:36;2.65;;;2.15;;
1475;SDS011;730;48.870;12.542;2022-11-20T13:49:08;2.83;;;2.28;;
1475;SDS011;730;48.870;12.542;2022-11-20T13:51:48;2.97;;;1.77;;
1475;SDS011;730;48.870;12.542;2022-11-20T14:00:21;3.78;;;3.47;;
1475;SDS011;730;48.870;12.542;2022-11-20T14:05:37;6.57;;;5.05;;
1475;SDS011;730;48.870;12.542;2022-11-20T14:08:06;8.25;;;5.45;;
1475;SDS011;730;48.870;12.542;2022-11-20T14:10:42;3.78;;;3.42;;
1475;SDS011;730;48.870;12.542;2022-11-20T14:13:10;3.45;;;2.95;;
1475;SDS011;730;48.870;12.542;2022-11-20T14:15:45;2.92;;;2.60;;
1475;SDS011;730;48.870;12.542;2022-11-20T14:18:13;3.65;;;2.63;;
1475;SDS011;730;48.870;12.542;2022-11-20T14:20:44;2.75;;;2.25;;
1475;SDS011;730;48.870;12.542;2022-11-20T14:23:11;2.50;;;2.30;;
1475;SDS011;730;48.870;12.542;2022-11-20T14:25:41;2.45;;;2.25;;
1475;SDS011;730;48.870;12.542;2022-11-20T14:28:11;2.80;;;2.60;;
1475;SDS011;730;48.870;12.542;2022-11-20T14:30:52;3.88;;;3.47;;
1475;SDS011;730;48.870;12.542;2022-11-20T14:33:20;4.68;;;4.25;;
1475;SDS011;730;48.870;12.542;2022-11-20T14:35:51;3.67;;;3.38;;
1475;SDS011;730;48.870;12.542;2022-11-20T14:38:24;2.50;;;2.30;;
1475;SDS011;730;48.870;12.542;2022-11-20T14:40:52;2.57;;;2.37;;
1475;SDS011;730;48.870;12.542;2022-11-20T14:43:19;2.75;;;2.35;;
1475;SDS011;730;48.870;12.542;2022-11-20T14:45:57;2.67;;;2.47;;
1475;SDS011;730;48.870;12.542;2022-11-20T14:48:38;7.88;;;4.70;;
1475;SDS011;730;48.870;12.542;2022-11-20T14:53:56;4.03;;;3.63;;
1475;SDS011;730;48.870;12.542;2022-11-20T14:56:32;3.03;;;2.65;;
1475;SDS011;730;48.870;12.542;2022-11-20T14:58:59;3.77;;;3.20;;
1475;SDS011;730;48.870;12.542;2022-11-20T15:01:26;3.27;;;2.97;;
1475;SDS011;730;48.870;12.542;2022-11-20T15:04:10;4.88;;;3.13;;
1475;SDS011;730;48.870;12.542;2022-11-20T15:06:37;3.35;;;3.03;;
1475;SDS011;730;48.870;12.542;2022-11-20T15:09:14;4.40;;;2.40;;
1475;SDS011;730;48.870;12.542;2022-11-20T15:11:50;3.55;;;2.50;;
1475;SDS011;730;48.870;12.542;2022-11-20T15:14:22;3.45;;;2.40;;
1475;SDS011;730;48.870;12.542;2022-11-20T15:16:50;3.30;;;2.50;;
1475;SDS011;730;48.870;12.542;2022-11-20T15:19:17;3.88;;;3.30;;
1475;SDS011;730;48.870;12.542;2022-11-20T15:21:46;2.70;;;2.42;;
1475;SDS011;730;48.870;12.542;2022-11-20T15:24:14;3.45;;;2.45;;
1475;SDS011;730;48.870;12.542;2022-11-20T15:26:40;2.65;;;1.88;;
1475;SDS011;730;48.870;12.542;2022-11-20T15:29:08;2.88;;;2.22;;
1475;SDS011;730;48.870;12.542;2022-11-20T15:31:36;2.67;;;2.38;;
1475;SDS011;730;48.870;12.542;2022-11-20T15:34:04;2.65;;;2.20;;
1475;SDS011;730;48.870;12.542;2022-11-20T15:36:32;3.08;;;2.35;;
1475;SDS011;730;48.870;12.542;2022-11-20T15:38:59;3.15;;;2.38;;
1475;SDS011;730;48.870;12.542;2022-11-20T15:41:25;2.27;;;2.07;;
1475;SDS011;730;48.870;12.542;2022-11-20T15:43:51;3.45;;;2.30;;
1475;SDS011;730;48.870;12.542;2022-11-20T15:46:18;2.65;;;1.90;;
1475;SDS011;730;48.870;12.542;2022-11-20T15:48:54;2.75;;;1.88;;
1475;SDS011;730;48.870;12.542;2022-11-20T15:51:25;3.38;;;2.25;;
1475;SDS011;730;48.870;12.542;2022-11-20T15:53:54;3.35;;;2.80;;
1475;SDS011;730;48.870;12.542;2022-11-20T15:56:21;2.88;;;2.35;;
1475;SDS011;730;48.870;12.542;2022-11-20T15:58:47;2.88;;;2.38;;
1475;SDS011;730;48.870;12.542;2022-11-20T16:01:15;2.58;;;2.00;;
1475;SDS011;730;48.870;12.542;2022-11-20T16:03:43;2.72;;;2.05;;
1475;SDS011;730;48.870;12.542;2022-11-20T16:06:09;4.47;;;4.07;;
1475;SDS011;730;48.870;12.542;2022-11-20T16:08:36;2.95;;;2.13;;
1475;SDS011;730;48.870;12.542;2022-11-20T16:11:02;3.50;;;3.20;;
1475;SDS011;730;48.870;12.542;2022-11-20T16:13:30;3.78;;;3.15;;
1475;SDS011;730;48.870;12.542;2022-11-20T16:16:22;2.20;;;1.92;;
1475;SDS011;730;48.870;12.542;2022-11-20T16:18:53;2.35;;;2.15;;
1475;SDS011;730;48.870;12.542;2022-11-20T16:21:20;2.20;;;2.00;;
1475;SDS011;730;48.870;12.542;2022-11-20T16:23:46;2.45;;;1.98;;
1475;SDS011;730;48.870;12.542;2022-11-20T16:26:13;3.17;;;2.35;;
1475;SDS011;730;48.870;12.542;2022-11-20T16:28:42;2.88;;;2.67;;
1475;SDS011;730;48.870;12.542;2022-11-20T16:31:10;2.00;;;1.60;;
1475;SDS011;730;48.870;12.542;2022-11-20T16:33:37;2.45;;;1.40;;
1475;SDS011;730;48.870;12.542;2022-11-20T16:36:07;2.10;;;1.88;;